»·PEaware :: N799DS KLGB-KSBA

N799DS :: KLGB-KSBA

FLIGHT INFORMATION

Flight Status: Arrived
Operator: Privately registered:
United States
More flights under this callsign
Pilot: Wolfgang B. (15069)
Aircraft: CESSNA 172 SKYHAWK
(C172)
More flights by this aircraft type
Origin: KLGB Long Beach
United States
Destination: KSBA Santa Barbara Mun
United States
More flights between these airports :: More routes between these airports
Route: +SLI V23 LAX V299 VTU VTU282 KWANG
File this flight plan on PilotEdge
Remarks:
Altitude:
(Current/Filed)
6,000ft
Speed:
(Current/Filed)
120kts
Departed: 23-Oct-19 10:38 AM
Arrived: 23-Oct-19 11:29 AM
Distance/Time
Traveled:
91nm/0:50
Distance/Time
To Go:
Arrived

Flight Plot

Page will automatically refresh every two minutes.


Map Options




Map Legend


Flown Route
Filed Route
Departure Airport
Arrival Airport
Navaid (VOR, NDB)
Fix

Horizontal Profiles

Position Reports

Time Latitude Longitude Heading Altitude Ground
Speed
23-Oct-19 09:48 33.812114 -118.150866 89 38ft 0kts
23-Oct-19 09:49 33.812114 -118.150866 89 38ft 0kts
23-Oct-19 09:50 33.812114 -118.150866 89 38ft 0kts
23-Oct-19 09:51 33.812114 -118.150866 89 38ft 0kts
23-Oct-19 09:52 33.812114 -118.150866 89 38ft 0kts
23-Oct-19 09:53 33.812114 -118.150866 89 38ft 0kts
23-Oct-19 09:54 33.812114 -118.150866 89 38ft 0kts
23-Oct-19 09:55 33.812114 -118.150866 89 38ft 0kts
23-Oct-19 09:56 33.812114 -118.150866 89 38ft 0kts
23-Oct-19 09:57 33.812114 -118.150866 89 38ft 0kts
23-Oct-19 09:58 33.812114 -118.150866 89 38ft 0kts
23-Oct-19 09:59 33.812114 -118.150866 89 38ft 0kts
23-Oct-19 10:00 33.812114 -118.150866 89 38ft 0kts
23-Oct-19 10:01 33.812114 -118.150866 89 38ft 0kts
23-Oct-19 10:02 33.812114 -118.150866 89 38ft 0kts
23-Oct-19 10:03 33.812114 -118.150866 89 38ft 0kts
23-Oct-19 10:04 33.812114 -118.150866 89 38ft 0kts
23-Oct-19 10:05 33.812114 -118.150866 89 38ft 0kts
23-Oct-19 10:06 33.812114 -118.150866 89 38ft 0kts
23-Oct-19 10:07 33.812114 -118.150866 89 38ft 0kts
23-Oct-19 10:08 33.812114 -118.150866 89 38ft 0kts
23-Oct-19 10:09 33.812114 -118.150866 89 38ft 0kts
23-Oct-19 10:10 33.812114 -118.150866 89 38ft 0kts
23-Oct-19 10:11 33.812114 -118.150866 89 38ft 0kts
23-Oct-19 10:12 33.812114 -118.150866 89 38ft 0kts
23-Oct-19 10:13 33.812114 -118.150866 89 38ft 0kts
23-Oct-19 10:14 33.812114 -118.150866 89 38ft 0kts
23-Oct-19 10:15 33.812114 -118.150866 89 38ft 0kts
23-Oct-19 10:16 33.812114 -118.150866 89 38ft 0kts
23-Oct-19 10:17 33.812114 -118.150866 89 38ft 0kts
23-Oct-19 10:18 33.812114 -118.150866 89 38ft 0kts
23-Oct-19 10:19 33.812114 -118.150866 89 38ft 0kts
23-Oct-19 10:20 33.812114 -118.150866 89 38ft 0kts
23-Oct-19 10:21 33.812114 -118.150866 89 38ft 0kts
23-Oct-19 10:22 33.812114 -118.150866 89 38ft 0kts
23-Oct-19 10:23 33.812114 -118.150866 89 38ft 0kts
23-Oct-19 10:24 33.812114 -118.150866 89 38ft 0kts
23-Oct-19 10:25 33.813018 -118.149429 88 37ft 11kts
23-Oct-19 10:26 33.813087 -118.148740 84 37ft 2kts
23-Oct-19 10:27 33.813091 -118.148700 83 37ft 0kts
23-Oct-19 10:28 33.813092 -118.148688 84 37ft 0kts
23-Oct-19 10:29 33.811560 -118.145494 132 31ft 22kts
23-Oct-19 10:30 33.807027 -118.139969 134 27ft 22kts
23-Oct-19 10:31 33.806450 -118.139067 99 27ft 0kts
23-Oct-19 10:32 33.806450 -118.139065 99 27ft 0kts
23-Oct-19 10:33 33.806450 -118.139065 99 27ft 0kts
23-Oct-19 10:34 33.806450 -118.139065 99 27ft 0kts
23-Oct-19 10:35 33.806450 -118.139065 99 27ft 0kts
23-Oct-19 10:36 33.806441 -118.138995 94 27ft 2kts
23-Oct-19 10:37 33.809846 -118.141730 315 39ft 74kts
23-Oct-19 10:38 33.822650 -118.160997 280 1005ft 80kts
23-Oct-19 10:39 33.826282 -118.186314 282 1980ft 78kts
23-Oct-19 10:40 33.833058 -118.210917 300 2871ft 80kts
23-Oct-19 10:41 33.842948 -118.234436 298 3739ft 79kts
23-Oct-19 10:42 33.853210 -118.258350 300 4531ft 82kts
23-Oct-19 10:43 33.864107 -118.281474 303 5327ft 81kts
23-Oct-19 10:44 33.875196 -118.305275 303 6006ft 90kts
23-Oct-19 10:45 33.890749 -118.338832 302 6017ft 124kts
23-Oct-19 10:46 33.905096 -118.370272 302 6016ft 123kts
23-Oct-19 10:47 33.921818 -118.407096 302 6014ft 123kts
23-Oct-19 10:48 33.937063 -118.445073 295 6013ft 123kts
23-Oct-19 10:49 33.949849 -118.484516 295 6012ft 123kts
23-Oct-19 10:50 33.962294 -118.523381 295 6010ft 123kts
23-Oct-19 10:51 33.974593 -118.561931 295 6008ft 123kts
23-Oct-19 10:52 33.986928 -118.600658 294 6008ft 123kts
23-Oct-19 10:53 33.999321 -118.639625 294 6009ft 124kts
23-Oct-19 10:54 34.011471 -118.677866 293 6008ft 125kts
23-Oct-19 10:55 34.024009 -118.717383 293 6008ft 126kts
23-Oct-19 10:56 34.036327 -118.756092 288 6009ft 118kts
23-Oct-19 10:57 34.046625 -118.793319 286 6009ft 115kts
23-Oct-19 10:58 34.056535 -118.830222 287 6009ft 114kts
23-Oct-19 10:59 34.066322 -118.866773 287 6009ft 114kts
23-Oct-19 11:00 34.076058 -118.903197 287 6008ft 113kts
23-Oct-19 11:02 34.085714 -118.939377 287 6008ft 112kts
23-Oct-19 11:03 34.095277 -118.975260 288 6016ft 111kts
23-Oct-19 11:04 34.104823 -119.011125 288 6018ft 111kts
23-Oct-19 11:05 34.114491 -119.046742 294 6018ft 111kts
23-Oct-19 11:06 34.128115 -119.080321 297 6018ft 111kts
23-Oct-19 11:07 34.142254 -119.114075 297 5782ft 114kts
23-Oct-19 11:08 34.156732 -119.148557 297 5283ft 115kts
23-Oct-19 11:09 34.171397 -119.183505 294 4779ft 117kts
23-Oct-19 11:10 34.186080 -119.218633 295 4275ft 117kts
23-Oct-19 11:11 34.200659 -119.253567 295 4008ft 115kts
23-Oct-19 11:12 34.215135 -119.288296 295 4008ft 115kts
23-Oct-19 11:13 34.229556 -119.322856 295 4008ft 114kts
23-Oct-19 11:14 34.243919 -119.357306 295 4015ft 114kts
23-Oct-19 11:15 34.258318 -119.391888 295 4017ft 114kts
23-Oct-19 11:16 34.272710 -119.426487 295 4017ft 115kts
23-Oct-19 11:17 34.287162 -119.461269 294 4017ft 115kts
23-Oct-19 11:18 34.301634 -119.496134 293 4017ft 116kts
23-Oct-19 11:19 34.315866 -119.531582 290 4015ft 117kts
23-Oct-19 11:19 34.326404 -119.562929 289 3595ft 121kts
23-Oct-19 11:21 34.342584 -119.607192 291 3003ft 124kts
23-Oct-19 11:22 34.357332 -119.645916 295 2500ft 130kts
23-Oct-19 11:22 34.370142 -119.679276 295 2127ft 128kts
23-Oct-19 11:23 34.383531 -119.713897 295 2062ft 105kts
23-Oct-19 11:25 34.398590 -119.752257 295 1477ft 108kts
23-Oct-19 11:26 34.411221 -119.784335 295 876ft 98kts
23-Oct-19 11:26 34.420436 -119.806957 303 535ft 79kts
23-Oct-19 11:27 34.428112 -119.830070 265 147ft 70kts
23-Oct-19 11:28 34.427967 -119.846234 8 14ft 23kts
23-Oct-19 11:29 34.428527 -119.845394 53 14ft 0kts
23-Oct-19 11:30 34.429117 -119.843854 66 14ft 19kts
23-Oct-19 11:31 34.430086 -119.841401 68 14ft 16kts
23-Oct-19 11:32 34.432135 -119.834861 65 14ft 21kts
23-Oct-19 11:33 34.432743 -119.834498 146 14ft 0kts
23-Oct-19 11:34 34.432743 -119.834498 146 14ft 0kts
23-Oct-19 11:35 34.432743 -119.834498 146 14ft 0kts
23-Oct-19 11:36 34.432743 -119.834498 146 14ft 0kts
23-Oct-19 11:37 34.432743 -119.834498 146 14ft 0kts
23-Oct-19 11:38 34.432743 -119.834498 146 14ft 0kts
23-Oct-19 11:39 34.432743 -119.834498 146 14ft 0kts
23-Oct-19 11:40 34.432743 -119.834498 146 14ft 0kts

Navigation Log

Ident Type
Flight plan parsing failed, navigation log unavailable